createdAt,value
2022-12-09T00:00:09.080Z,100575.91
2022-12-09T00:02:36.472Z,100578.25
2022-12-09T00:05:04.317Z,100583.34
2022-12-09T00:07:31.422Z,100584.00
2022-12-09T00:09:58.450Z,100585.56
2022-12-09T00:12:25.393Z,100590.56
2022-12-09T00:14:52.340Z,100580.13
2022-12-09T00:17:19.312Z,100585.19
2022-12-09T00:19:47.417Z,100579.91
2022-12-09T00:22:14.422Z,100578.97
2022-12-09T00:24:41.503Z,100576.38
2022-12-09T00:27:08.415Z,100582.22
2022-12-09T00:29:35.422Z,100580.41
2022-12-09T00:32:03.026Z,100582.97
2022-12-09T00:34:30.079Z,100578.59
2022-12-09T00:36:57.066Z,100578.34
2022-12-09T00:39:24.202Z,100590.50
2022-12-09T00:41:51.666Z,100581.84
2022-12-09T00:44:19.442Z,100587.84
2022-12-09T00:46:46.702Z,100587.78
2022-12-09T00:49:14.030Z,100588.63
2022-12-09T00:51:41.208Z,100591.22
2022-12-09T00:54:08.366Z,100596.41
2022-12-09T00:56:35.597Z,100601.66
2022-12-09T00:59:02.644Z,100596.50
2022-12-09T01:01:30.192Z,100600.88
2022-12-09T01:03:57.688Z,100596.63
2022-12-09T01:06:26.301Z,100594.97
2022-12-09T01:08:53.787Z,100591.53
2022-12-09T01:11:25.911Z,100592.06
2022-12-09T01:13:54.167Z,100594.00
2022-12-09T01:16:24.906Z,100600.81
2022-12-09T01:18:54.703Z,100600.81
2022-12-09T01:21:24.493Z,100605.16
2022-12-09T01:23:51.949Z,100606.03
2022-12-09T01:26:19.204Z,100607.75
2022-12-09T01:28:46.639Z,100609.56
2022-12-09T01:31:20.161Z,100614.78
2022-12-09T01:33:48.074Z,100612.28
2022-12-09T01:36:27.855Z,100612.28
2022-12-09T01:38:57.631Z,100622.50
2022-12-09T01:41:25.065Z,100631.84
2022-12-09T01:44:24.340Z,100624.88
2022-12-09T01:46:56.564Z,100627.38
2022-12-09T01:49:29.416Z,100629.94
2022-12-09T01:52:14.699Z,100629.00
2022-12-09T01:54:46.395Z,100622.94
2022-12-09T01:57:15.191Z,100623.75
2022-12-09T01:59:43.031Z,100618.69
2022-12-09T02:02:15.529Z,100627.19
2022-12-09T02:04:46.177Z,100618.69
2022-12-09T02:07:13.928Z,100620.41
2022-12-09T02:09:42.526Z,100629.84
2022-12-09T02:12:16.148Z,100637.28
2022-12-09T02:15:02.027Z,100634.75
2022-12-09T02:17:41.880Z,100635.63
2022-12-09T02:20:35.600Z,100633.03
2022-12-09T02:23:19.967Z,100626.22
2022-12-09T02:26:08.509Z,100633.03
2022-12-09T02:29:03.231Z,100635.63
2022-12-09T02:31:45.364Z,100628.72
2022-12-09T02:34:23.949Z,100620.19
2022-12-09T02:37:06.911Z,100615.13
2022-12-09T02:39:52.390Z,100617.69
2022-12-09T02:42:24.686Z,100627.19
2022-12-09T02:44:52.850Z,100623.84
2022-12-09T02:47:27.484Z,100618.63
2022-12-09T02:50:06.690Z,100621.53
2022-12-09T02:52:35.844Z,100626.69
2022-12-09T02:55:07.787Z,100620.78
2022-12-09T02:57:37.205Z,100605.25
2022-12-09T03:00:06.999Z,100620.00
2022-12-09T03:02:43.884Z,100616.66
2022-12-09T03:05:24.008Z,100623.53
2022-12-09T03:08:43.968Z,100622.75
2022-12-09T03:11:19.364Z,100621.94
2022-12-09T03:14:19.023Z,100620.25
2022-12-09T03:17:17.939Z,100621.13
2022-12-09T03:19:55.611Z,100625.25
2022-12-09T03:22:28.613Z,100626.31
2022-12-09T03:25:28.499Z,100630.63
2022-12-09T03:28:10.530Z,100621.22
2022-12-09T03:30:41.163Z,100609.09
2022-12-09T03:33:10.399Z,100616.06
2022-12-09T03:35:43.389Z,100616.06
2022-12-09T03:38:14.960Z,100613.56
2022-12-09T03:40:43.199Z,100613.56
2022-12-09T03:43:19.833Z,100611.09
2022-12-09T03:45:47.223Z,100607.69
2022-12-09T03:48:16.160Z,100609.38
2022-12-09T03:50:56.002Z,100602.50
2022-12-09T03:53:33.591Z,100595.66
2022-12-09T03:56:33.499Z,100582.59
2022-12-09T03:59:03.693Z,100596.50
2022-12-09T04:01:32.888Z,100597.28
2022-12-09T04:04:00.632Z,100595.59
2022-12-09T04:06:27.808Z,100605.94
2022-12-09T04:09:00.735Z,100603.44
2022-12-09T04:11:29.607Z,100597.34
2022-12-09T04:13:56.555Z,100599.09
2022-12-09T04:16:23.635Z,100595.75
2022-12-09T04:18:50.696Z,100601.75
2022-12-09T04:21:17.877Z,100605.25
2022-12-09T04:23:44.737Z,100600.97
2022-12-09T04:26:17.693Z,100603.53
2022-12-09T04:28:44.664Z,100601.75
2022-12-09T04:31:17.330Z,100609.47
2022-12-09T04:33:45.126Z,100609.53
2022-12-09T04:36:15.915Z,100609.53
2022-12-09T04:38:43.641Z,100598.22
2022-12-09T04:41:11.717Z,100615.63
2022-12-09T04:43:39.003Z,100607.69
2022-12-09T04:46:11.456Z,100613.91
2022-12-09T04:48:38.692Z,100607.91
2022-12-09T04:51:09.752Z,100602.78
2022-12-09T04:53:37.670Z,100609.63
2022-12-09T04:56:08.547Z,100605.25
2022-12-09T04:58:35.665Z,100601.06
2022-12-09T05:01:11.533Z,100602.69
2022-12-09T05:03:39.346Z,100603.53
2022-12-09T05:06:11.190Z,100600.88
2022-12-09T05:08:39.907Z,100606.91
2022-12-09T05:11:07.719Z,100600.13
2022-12-09T05:13:35.344Z,100607.06
2022-12-09T05:16:13.786Z,100593.41
2022-12-09T05:18:42.644Z,100609.78
2022-12-09T05:21:18.538Z,100602.94
2022-12-09T05:23:45.783Z,100609.09
2022-12-09T05:26:16.924Z,100613.47
2022-12-09T05:28:44.443Z,100620.41
2022-12-09T05:31:17.179Z,100614.38
2022-12-09T05:33:45.241Z,100621.25
2022-12-09T05:36:15.779Z,100623.16
2022-12-09T05:38:43.703Z,100611.94
2022-12-09T05:41:11.000Z,100626.72
2022-12-09T05:43:38.988Z,100621.56
2022-12-09T05:46:07.036Z,100616.53
2022-12-09T05:48:35.411Z,100630.31
2022-12-09T05:51:15.579Z,100624.34
2022-12-09T05:53:43.308Z,100622.63
2022-12-09T05:56:10.679Z,100612.34
2022-12-09T05:58:38.018Z,100614.81
2022-12-09T06:01:08.953Z,100613.09
2022-12-09T06:03:37.673Z,100595.59
2022-12-09T06:06:07.562Z,100606.13
2022-12-09T06:08:35.015Z,100611.22
2022-12-09T06:11:02.546Z,100607.81
2022-12-09T06:13:29.820Z,100608.72
2022-12-09T06:16:04.426Z,100612.97
2022-12-09T06:18:32.122Z,100611.06
2022-12-09T06:20:59.690Z,100619.91
2022-12-09T06:23:27.175Z,100623.38
2022-12-09T06:25:54.319Z,100615.59
2022-12-09T06:28:21.527Z,100611.28
2022-12-09T06:30:48.453Z,100613.13
2022-12-09T06:33:44.991Z,100615.78
2022-12-09T06:36:04.161Z,100617.47
2022-12-09T06:38:31.225Z,100624.41
2022-12-09T06:40:58.324Z,100623.56
2022-12-09T06:43:25.448Z,100615.84
2022-12-09T06:45:54.265Z,100622.63
2022-12-09T06:48:21.519Z,100624.25
2022-12-09T06:50:50.907Z,100617.09
2022-12-09T06:53:18.807Z,100630.06
2022-12-09T06:55:45.732Z,100629.16
2022-12-09T06:58:12.838Z,100632.53
2022-12-09T07:00:40.532Z,100632.53
2022-12-09T07:03:07.728Z,100623.94
2022-12-09T07:05:35.282Z,100626.50
2022-12-09T07:08:02.761Z,100626.34
2022-12-09T07:10:30.016Z,100630.47
2022-12-09T07:12:56.964Z,100615.56
2022-12-09T07:15:24.257Z,100632.00
2022-12-09T07:17:51.992Z,100636.13
2022-12-09T07:20:19.455Z,100647.19
2022-12-09T07:22:46.590Z,100649.75
2022-12-09T07:25:13.890Z,100647.03
2022-12-09T07:27:41.671Z,100643.56
2022-12-09T07:30:09.499Z,100646.91
2022-12-09T07:32:37.037Z,100656.19
2022-12-09T07:35:04.461Z,100663.78
2022-12-09T07:37:32.320Z,100642.69
2022-12-09T07:39:59.593Z,100671.19
2022-12-09T07:42:26.931Z,100673.56
2022-12-09T07:44:55.178Z,100674.34
2022-12-09T07:47:22.385Z,100661.50
2022-12-09T07:49:49.870Z,100676.16
2022-12-09T07:52:16.961Z,100681.34
2022-12-09T07:54:43.937Z,100675.34
2022-12-09T07:57:10.876Z,100677.09
2022-12-09T07:59:37.991Z,100667.63
2022-12-09T08:02:06.685Z,100673.56
2022-12-09T08:04:36.223Z,100680.53
2022-12-09T08:07:03.621Z,100682.28
2022-12-09T08:09:31.152Z,100677.16
2022-12-09T08:11:58.650Z,100681.41
2022-12-09T08:14:25.870Z,100681.34
2022-12-09T08:16:53.233Z,100680.41
2022-12-09T08:19:20.471Z,100669.16
2022-12-09T08:21:54.227Z,100677.84
2022-12-09T08:24:21.973Z,100676.00
2022-12-09T08:26:51.420Z,100676.16
2022-12-09T08:29:19.245Z,100670.81
2022-12-09T08:31:46.554Z,100668.44
2022-12-09T08:34:15.366Z,100674.69
2022-12-09T08:36:43.287Z,100669.63
2022-12-09T08:39:13.204Z,100676.59
2022-12-09T08:41:41.043Z,100674.78
2022-12-09T08:44:22.213Z,100672.44
2022-12-09T08:46:52.201Z,100681.13
2022-12-09T08:49:22.238Z,100679.38
2022-12-09T08:51:52.547Z,100674.28
2022-12-09T08:54:20.077Z,100656.09
2022-12-09T08:56:49.517Z,100668.38
2022-12-09T08:59:17.757Z,100668.53
2022-12-09T09:01:45.806Z,100666.97
2022-12-09T09:04:20.356Z,100668.75
2022-12-09T09:06:50.301Z,100641.88
2022-12-09T09:09:18.559Z,100659.50
2022-12-09T09:11:46.019Z,100664.81
2022-12-09T09:14:14.331Z,100659.00
2022-12-09T09:16:43.448Z,100661.56
2022-12-09T09:19:17.565Z,100666.09
2022-12-09T09:21:45.093Z,100663.66
2022-12-09T09:24:15.607Z,100642.88
2022-12-09T09:26:43.548Z,100663.16
2022-12-09T09:29:15.999Z,100664.13
2022-12-09T09:31:43.448Z,100666.78
2022-12-09T09:34:11.485Z,100661.72
2022-12-09T09:36:40.447Z,100649.78
2022-12-09T09:39:07.712Z,100655.81
2022-12-09T09:41:48.904Z,100646.34
2022-12-09T09:44:30.487Z,100658.34
2022-12-09T09:46:58.722Z,100652.19
2022-12-09T09:49:29.906Z,100657.34
2022-12-09T09:51:57.677Z,100671.22
2022-12-09T09:54:24.928Z,100663.50
2022-12-09T09:57:05.799Z,100661.78
2022-12-09T10:00:14.943Z,100662.66
2022-12-09T10:03:01.238Z,100662.72
2022-12-09T10:05:33.568Z,100665.28
2022-12-09T10:08:34.746Z,100677.31
2022-12-09T10:11:21.098Z,100667.78
2022-12-09T10:14:15.522Z,100669.44
2022-12-09T10:17:09.765Z,100670.22
2022-12-09T10:19:49.429Z,100673.72
2022-12-09T10:22:22.344Z,100671.06
2022-12-09T10:24:53.674Z,100652.22
2022-12-09T10:27:32.848Z,100674.88
2022-12-09T10:30:07.477Z,100673.31
2022-12-09T10:32:37.667Z,100669.09
2022-12-09T10:35:24.819Z,100671.81
2022-12-09T10:37:54.376Z,100668.44
2022-12-09T10:40:46.012Z,100665.88
2022-12-09T10:43:37.521Z,100664.09
2022-12-09T10:46:21.930Z,100659.81
2022-12-09T10:48:50.297Z,100657.31
2022-12-09T10:51:30.203Z,100658.19
2022-12-09T10:54:03.665Z,100666.91
2022-12-09T10:56:37.064Z,100659.19
2022-12-09T10:59:25.770Z,100661.91
2022-12-09T11:01:58.870Z,100659.44
2022-12-09T11:04:39.330Z,100655.28
2022-12-09T11:07:12.852Z,100662.25
2022-12-09T11:09:44.808Z,100656.09
2022-12-09T11:12:33.436Z,100656.38
2022-12-09T11:15:32.471Z,100652.06
2022-12-09T11:18:16.644Z,100655.50
2022-12-09T11:20:57.072Z,100656.31
2022-12-09T11:23:24.612Z,100657.25
2022-12-09T11:26:23.097Z,100662.44
2022-12-09T11:29:06.893Z,100657.31
2022-12-09T11:31:39.249Z,100662.47
2022-12-09T11:34:18.348Z,100663.31
2022-12-09T11:36:52.867Z,100656.50
2022-12-09T11:39:30.354Z,100648.72
2022-12-09T11:42:17.429Z,100656.50
2022-12-09T11:45:00.342Z,100660.81
2022-12-09T11:50:31.559Z,100651.91
2022-12-09T11:53:28.575Z,100661.47
2022-12-09T11:56:14.766Z,100662.38
2022-12-09T11:58:53.899Z,100666.72
2022-12-09T12:01:32.580Z,100668.47
2022-12-09T12:04:05.881Z,100671.88
2022-12-09T12:06:50.754Z,100652.78
2022-12-09T12:09:27.560Z,100662.88
2022-12-09T12:12:06.391Z,100655.06
2022-12-09T12:14:38.198Z,100649.75
2022-12-09T12:17:26.036Z,100666.78
2022-12-09T12:19:56.293Z,100647.63
2022-12-09T12:23:09.618Z,100649.88
2022-12-09T12:25:59.816Z,100649.88
2022-12-09T12:29:06.904Z,100636.69
2022-12-09T12:32:15.707Z,100645.63
2022-12-09T12:35:20.346Z,100638.69
2022-12-09T12:38:22.048Z,100643.72
2022-12-09T12:41:24.087Z,100647.06
2022-12-09T12:45:13.738Z,100643.59
2022-12-09T12:47:57.660Z,100649.53
2022-12-09T12:50:51.735Z,100653.00
2022-12-09T12:53:29.502Z,100647.97
2022-12-09T12:56:09.408Z,100652.34
2022-12-09T12:58:36.293Z,100657.56
2022-12-09T13:01:30.694Z,100659.31
2022-12-09T13:04:25.160Z,100655.09
2022-12-09T13:07:13.229Z,100654.28
2022-12-09T13:09:55.000Z,100654.16
2022-12-09T13:12:54.021Z,100656.00
2022-12-09T13:15:34.773Z,100654.13
2022-12-09T13:18:17.535Z,100631.44
2022-12-09T13:20:56.674Z,100647.13
2022-12-09T13:23:58.515Z,100647.13
2022-12-09T13:27:00.291Z,100650.41
2022-12-09T13:29:52.441Z,100661.47
2022-12-09T13:32:58.248Z,100651.09
2022-12-09T13:35:54.784Z,100643.13
2022-12-09T13:38:39.642Z,100655.28
2022-12-09T13:41:31.413Z,100651.69
2022-12-09T13:44:13.667Z,100655.06
2022-12-09T13:46:42.911Z,100642.16
2022-12-09T13:49:18.221Z,100645.53
2022-12-09T13:51:52.693Z,100650.66
2022-12-09T13:54:23.881Z,100656.66
2022-12-09T13:57:20.251Z,100644.47
2022-12-09T13:59:59.249Z,100649.56
2022-12-09T14:02:43.048Z,100653.88
2022-12-09T14:05:19.825Z,100645.25
2022-12-09T14:07:50.881Z,100647.78
2022-12-09T14:10:50.215Z,100647.69
2022-12-09T14:13:31.868Z,100641.69
2022-12-09T14:16:17.389Z,100649.22
2022-12-09T14:18:44.715Z,100656.97
2022-12-09T14:21:29.790Z,100663.75
2022-12-09T14:24:11.435Z,100659.44
2022-12-09T14:27:10.301Z,100661.16
2022-12-09T14:29:53.970Z,100655.94
2022-12-09T14:32:49.900Z,100658.47
2022-12-09T14:35:39.806Z,100656.59
2022-12-09T14:38:28.558Z,100651.47
2022-12-09T14:41:26.035Z,100653.16
2022-12-09T14:44:15.879Z,100651.28
2022-12-09T14:46:46.424Z,100653.16
2022-12-09T14:49:20.837Z,100654.03
2022-12-09T14:51:55.108Z,100655.69
2022-12-09T14:54:36.145Z,100654.75
2022-12-09T14:57:07.388Z,100648.69
2022-12-09T14:59:34.940Z,100655.50
2022-12-09T15:02:09.158Z,100658.06
2022-12-09T15:04:43.218Z,100657.97
2022-12-09T15:07:14.136Z,100657.88
2022-12-09T15:10:04.757Z,100659.59
2022-12-09T15:12:42.319Z,100656.09
2022-12-09T15:15:24.425Z,100649.91
2022-12-09T15:18:00.109Z,100655.97
2022-12-09T15:20:37.240Z,100668.78
2022-12-09T15:23:30.100Z,100668.69
2022-12-09T15:26:03.189Z,100661.75
2022-12-09T15:28:34.223Z,100664.28
2022-12-09T15:31:03.800Z,100661.63
2022-12-09T15:33:40.218Z,100655.44
2022-12-09T15:36:26.383Z,100665.59
2022-12-09T15:39:25.947Z,100666.19
2022-12-09T15:42:08.121Z,100668.00
2022-12-09T15:45:00.278Z,100645.22
2022-12-09T15:47:33.876Z,100664.50
2022-12-09T15:50:22.354Z,100674.72
2022-12-09T15:53:37.192Z,100660.94
2022-12-09T15:56:18.625Z,100674.78
2022-12-09T15:58:50.581Z,100671.38
2022-12-09T16:01:24.636Z,100673.78
2022-12-09T16:03:54.069Z,100677.88
2022-12-09T16:06:28.871Z,100668.63
2022-12-09T16:08:56.771Z,100675.16
2022-12-09T16:11:47.959Z,100679.22
2022-12-09T16:14:16.622Z,100673.63
2022-12-09T16:16:58.941Z,100678.25
2022-12-09T16:19:36.278Z,100678.59
2022-12-09T16:22:21.714Z,100673.19
2022-12-09T16:27:48.506Z,100678.53
2022-12-09T16:30:24.606Z,100678.72
2022-12-09T16:33:02.384Z,100690.53
2022-12-09T16:35:40.146Z,100702.38
2022-12-09T16:38:09.957Z,100699.25
2022-12-09T16:40:45.681Z,100697.94
2022-12-09T16:43:20.339Z,100699.16
2022-12-09T16:46:07.644Z,100709.78
2022-12-09T16:48:34.551Z,100700.63
2022-12-09T16:51:11.788Z,100693.88
2022-12-09T16:53:47.622Z,100696.00
2022-12-09T16:56:28.019Z,100704.75
2022-12-09T16:58:55.599Z,100704.13
2022-12-09T17:01:34.802Z,100710.31
2022-12-09T17:04:11.491Z,100707.78
2022-12-09T17:06:38.953Z,100707.00
2022-12-09T17:09:06.049Z,100706.06
2022-12-09T17:11:34.293Z,100715.75
2022-12-09T17:14:01.156Z,100714.16
2022-12-09T17:16:28.119Z,100709.88
2022-12-09T17:18:55.142Z,100707.31
2022-12-09T17:21:22.034Z,100714.22
2022-12-09T17:23:49.038Z,100716.72
2022-12-09T17:26:19.001Z,100704.44
2022-12-09T17:28:46.926Z,100715.84
2022-12-09T17:31:18.604Z,100720.13
2022-12-09T17:33:45.967Z,100719.25
2022-12-09T17:36:14.609Z,100718.34
2022-12-09T17:38:42.050Z,100718.31
2022-12-09T17:41:15.921Z,100720.78
2022-12-09T17:43:43.266Z,100720.72
2022-12-09T17:46:11.785Z,100719.78
2022-12-09T17:48:42.011Z,100720.53
2022-12-09T17:51:17.739Z,100725.50
2022-12-09T17:53:45.562Z,100721.84
2022-12-09T17:56:19.840Z,100716.41
2022-12-09T17:58:48.110Z,100721.69
2022-12-09T18:01:19.151Z,100729.28
2022-12-09T18:03:55.892Z,100732.69
2022-12-09T18:06:27.815Z,100731.00
2022-12-09T18:08:54.852Z,100731.84
2022-12-09T18:11:22.483Z,100736.13
2022-12-09T18:13:51.198Z,100728.50
2022-12-09T18:16:18.993Z,100742.13
2022-12-09T18:18:46.561Z,100732.63
2022-12-09T18:21:15.946Z,100732.56
2022-12-09T18:23:43.933Z,100734.31
2022-12-09T18:26:14.881Z,100729.25
2022-12-09T18:28:42.249Z,100733.66
2022-12-09T18:31:19.103Z,100735.47
2022-12-09T18:33:46.651Z,100733.78
2022-12-09T18:36:20.554Z,100738.91
2022-12-09T18:38:47.924Z,100734.59
2022-12-09T18:41:22.306Z,100737.88
2022-12-09T18:43:52.470Z,100736.13
2022-12-09T18:46:29.855Z,100736.00
2022-12-09T18:49:05.674Z,100738.47
2022-12-09T18:51:32.939Z,100732.50
2022-12-09T18:54:01.847Z,100735.94
2022-12-09T18:56:29.288Z,100732.63
2022-12-09T18:59:06.518Z,100729.25
2022-12-09T19:01:39.658Z,100737.88
2022-12-09T19:04:10.422Z,100737.75
2022-12-09T19:06:39.966Z,100731.09
2022-12-09T19:09:14.836Z,100719.88
2022-12-09T19:11:43.752Z,100729.66
2022-12-09T19:14:11.141Z,100730.53
2022-12-09T19:16:38.944Z,100739.97
2022-12-09T19:19:10.493Z,100720.34
2022-12-09T19:21:39.072Z,100722.81
2022-12-09T19:24:07.514Z,100729.00
2022-12-09T19:26:37.613Z,100722.91
2022-12-09T19:29:07.703Z,100717.69
2022-12-09T19:31:44.711Z,100718.50
2022-12-09T19:34:24.749Z,100728.03
2022-12-09T19:36:55.319Z,100745.25
2022-12-09T19:39:24.810Z,100745.28
2022-12-09T19:41:51.748Z,100744.41
2022-12-09T19:44:44.368Z,100742.72
2022-12-09T19:47:07.609Z,100742.59
2022-12-09T19:49:34.633Z,100739.97
2022-12-09T19:52:01.596Z,100734.78
2022-12-09T19:54:29.618Z,100733.66
2022-12-09T19:56:56.705Z,100745.56
2022-12-09T19:59:23.617Z,100742.13
2022-12-09T20:01:50.628Z,100737.06
2022-12-09T20:07:08.501Z,100731.34
2022-12-09T20:09:37.094Z,100726.25
2022-12-09T20:12:04.839Z,100739.22
2022-12-09T20:14:31.819Z,100731.56
2022-12-09T20:16:58.695Z,100732.50
2022-12-09T20:19:25.582Z,100734.31
2022-12-09T20:21:52.508Z,100730.03
2022-12-09T20:24:19.406Z,100721.28
2022-12-09T20:26:46.292Z,100733.16
2022-12-09T20:29:13.508Z,100725.97
2022-12-09T20:31:41.783Z,100729.34
2022-12-09T20:34:15.987Z,100733.63
2022-12-09T20:36:44.834Z,100738.03
2022-12-09T20:39:19.058Z,100750.97
2022-12-09T20:41:47.060Z,100741.56
2022-12-09T20:44:15.684Z,100742.97
2022-12-09T20:46:51.098Z,100738.97
2022-12-09T20:49:20.386Z,100754.56
2022-12-09T20:51:48.603Z,100754.38
2022-12-09T20:54:15.632Z,100756.56
2022-12-09T20:56:42.561Z,100756.22
2022-12-09T20:59:12.098Z,100762.03
2022-12-09T21:01:39.734Z,100762.13
2022-12-09T21:04:07.734Z,100756.91
2022-12-09T21:06:39.766Z,100764.28
2022-12-09T21:09:17.337Z,100779.13
2022-12-09T21:11:45.114Z,100755.13
2022-12-09T21:14:13.239Z,100764.00
2022-12-09T21:16:42.273Z,100765.78
2022-12-09T21:19:14.068Z,100761.69
2022-12-09T21:21:46.697Z,100761.81
2022-12-09T21:24:15.817Z,100768.66
2022-12-09T21:26:42.744Z,100765.13
2022-12-09T21:29:13.522Z,100766.13
2022-12-09T21:31:42.075Z,100772.09
2022-12-09T21:34:10.576Z,100777.16
2022-12-09T21:36:41.190Z,100777.97
2022-12-09T21:39:09.082Z,100786.56
2022-12-09T21:41:37.405Z,100795.97
2022-12-09T21:44:05.798Z,100795.28
2022-12-09T21:46:36.470Z,100786.75
2022-12-09T21:49:06.397Z,100785.06
2022-12-09T21:51:34.925Z,100789.44
2022-12-09T21:54:02.165Z,100774.66
2022-12-09T21:56:32.687Z,100786.09
2022-12-09T21:59:00.334Z,100791.25
2022-12-09T22:01:33.765Z,100793.81
2022-12-09T22:04:02.616Z,100793.81
2022-12-09T22:06:30.426Z,100797.22
2022-12-09T22:09:01.893Z,100787.72
2022-12-09T22:11:31.683Z,100792.88
2022-12-09T22:14:00.683Z,100789.44
2022-12-09T22:16:48.393Z,100800.56
2022-12-09T22:19:18.650Z,100787.63
2022-12-09T22:21:45.935Z,100793.47
2022-12-09T22:24:15.283Z,100792.75
2022-12-09T22:26:45.566Z,100785.91
2022-12-09T22:29:15.262Z,100791.03
2022-12-09T22:31:43.298Z,100796.09
2022-12-09T22:34:20.790Z,100798.66
2022-12-09T22:36:49.346Z,100797.84
2022-12-09T22:39:21.853Z,100796.16
2022-12-09T22:41:48.822Z,100806.44
2022-12-09T22:44:18.892Z,100804.72
2022-12-09T22:46:46.689Z,100806.47
2022-12-09T22:49:15.358Z,100803.78
2022-12-09T22:51:43.092Z,100797.72
2022-12-09T22:54:10.862Z,100807.19
2022-12-09T22:56:40.583Z,100802.81
2022-12-09T22:59:07.747Z,100802.81
2022-12-09T23:01:37.346Z,100797.66
2022-12-09T23:04:07.135Z,100794.91
2022-12-09T23:06:37.234Z,100792.34
2022-12-09T23:09:06.128Z,100802.09
2022-12-09T23:11:33.003Z,100800.47
2022-12-09T23:14:00.556Z,100806.53
2022-12-09T23:16:27.863Z,100804.06
2022-12-09T23:18:57.444Z,100798.09
2022-12-09T23:21:37.166Z,100795.41
2022-12-09T23:24:11.743Z,100798.00
2022-12-09T23:26:40.832Z,100798.09
2022-12-09T23:29:13.732Z,100798.16
2022-12-09T23:31:41.545Z,100799.03
2022-12-09T23:34:10.288Z,100790.44
2022-12-09T23:36:39.830Z,100789.63
2022-12-09T23:39:12.982Z,100794.81
2022-12-09T23:41:41.786Z,100787.16
2022-12-09T23:44:15.743Z,100792.06
2022-12-09T23:46:43.024Z,100794.06
2022-12-09T23:49:10.203Z,100788.94
2022-12-09T23:51:40.523Z,100787.22
2022-12-09T23:54:09.252Z,100795.00
2022-12-09T23:56:39.844Z,100797.50
2022-12-09T23:59:11.075Z,100789.81
